Time;durP1;ratioP1;P1;durP2;ratioP2;P2;SDS_P1;SDS_P2;PMS_P1;PMS_P2;Temp;Humidity;BMP_temperature;BMP_pressure;BME280_temperature;BME280_humidity;BME280_pressure;Samples;Min_cycle;Max_cycle;Signal;HPM_P1;HPM_P2
2023/05/18 00:00:45;;;;;;;;;;;;;;;18.61;70.05;98458.75;2087898;28;20044;-47
2023/05/18 00:01:46;;;;;;;50.63;26.25;;;;;;;18.63;70.07;98454.00;2084789;28;19932;-48
2023/05/18 00:02:48;;;;;;;52.08;26.35;;;;;;;18.64;70.50;98453.00;2084110;28;20052;-46
2023/05/18 00:03:53;;;;;;;67.20;26.25;;;;;;;18.66;69.96;98450.91;2085611;28;20072;-46
2023/05/18 00:04:55;;;;;;;53.25;24.10;;;;;;;18.67;69.76;98458.78;2083628;28;20060;-45
2023/05/18 00:05:56;;;;;;;53.45;27.98;;;;;;;18.67;69.90;98452.56;2080860;28;20044;-46
2023/05/18 00:07:02;;;;;;;;;;;;;;;18.58;70.11;98460.00;2081711;28;20516;-49
2023/05/18 00:08:02;;;;;;;52.42;24.77;;;;;;;18.61;70.37;98453.38;2086054;28;20454;-49
2023/05/18 00:09:04;;;;;;;;;;;;;;;18.53;70.11;98457.94;2087387;28;20079;-47
2023/05/18 00:10:06;;;;;;;56.40;25.25;;;;;;;18.59;69.97;98458.16;2086376;28;20662;-48
2023/05/18 00:11:09;;;;;;;52.83;26.42;;;;;;;18.62;70.43;98450.50;2088390;28;20060;-47
2023/05/18 00:12:09;;;;;;;54.13;25.15;;;;;;;18.64;69.81;98458.38;2087355;28;20080;-45
2023/05/18 00:13:11;;;;;;;;;;;;;;;18.58;69.58;98454.63;2087265;28;20127;-47
2023/05/18 00:14:11;;;;;;;56.70;25.63;;;;;;;18.60;70.40;98451.75;2088059;28;20568;-45
2023/05/18 00:15:13;;;;;;;;;;;;;;;18.53;69.95;98447.19;2087000;28;20083;-49
2023/05/18 00:16:14;;;;;;;52.67;25.27;;;;;;;18.56;69.83;98454.03;2083057;28;19932;-47
2023/05/18 00:17:16;;;;;;;45.30;25.00;;;;;;;18.59;70.55;98450.09;2084165;28;20734;-48
2023/05/18 00:18:17;;;;;;;46.17;24.08;;;;;;;18.61;68.83;98448.00;2085618;28;20181;-47
2023/05/18 00:19:19;;;;;;;51.13;25.00;;;;;;;18.62;69.63;98442.44;2085006;28;20121;-46
2023/05/18 00:20:20;;;;;;;51.33;25.10;;;;;;;18.63;69.91;98445.94;2083090;28;20057;-48
2023/05/18 00:21:22;;;;;;;46.45;23.00;;;;;;;18.64;69.87;98442.25;2076766;28;20098;-46
2023/05/18 00:22:23;;;;;;;42.20;24.88;;;;;;;18.65;69.60;98443.88;2079936;28;20053;-45
2023/05/18 00:23:28;;;;;;;;;;;;;;;18.56;69.93;98450.53;2086565;28;20052;-47
2023/05/18 00:24:29;;;;;;;46.45;23.00;;;;;;;18.58;69.60;98453.81;2085731;28;20688;-47
2023/05/18 00:25:30;;;;;;;;;;;;;;;18.50;70.40;98458.38;2087751;28;20099;-46
2023/05/18 00:26:32;;;;;;;46.22;24.67;;;;;;;18.56;70.42;98459.41;2084170;28;19969;-46
2023/05/18 00:27:34;;;;;;;48.55;24.08;;;;;;;18.61;69.54;98453.38;2084228;28;20126;-47
2023/05/18 00:28:35;;;;;;;46.58;24.42;;;;;;;18.63;69.50;98454.00;2078202;28;20045;-47
2023/05/18 00:29:36;;;;;;;;;;;;;;;18.50;69.42;98458.38;2082820;28;20142;-46
2023/05/18 00:30:37;;;;;;;41.90;22.83;;;;;;;18.56;69.58;98454.03;2083766;28;20644;-46
2023/05/18 00:31:39;;;;;;;39.63;23.77;;;;;;;18.59;69.61;98450.09;2080997;28;20099;-50
2023/05/18 00:32:40;;;;;;;50.63;22.95;;;;;;;18.62;69.36;98449.69;2086229;28;20049;-48
2023/05/18 00:33:43;;;;;;;;;;;;;;;18.53;69.50;98449.88;2087363;28;20524;-47
2023/05/18 00:34:44;;;;;;;43.28;22.30;;;;;;;18.56;70.14;98455.88;2086445;28;20270;-52
2023/05/18 00:35:46;;;;;;;;;;;;;;;18.49;69.95;98445.94;2079497;28;20136;-49
2023/05/18 00:36:46;;;;;;;;;;;;;;;18.44;69.90;98447.59;2078861;28;19932;-48
2023/05/18 00:37:48;;;;;;;43.97;22.37;;;;;;;18.49;69.86;98445.94;2078133;28;19925;-46
2023/05/18 00:38:49;;;;;;;43.20;22.55;;;;;;;18.57;69.92;98446.78;2083361;28;20044;-49
2023/05/18 00:39:50;;;;;;;;;;;;;;;18.50;70.40;98442.25;2087876;28;20056;-51
2023/05/18 00:40:51;;;;;;;42.50;24.63;;;;;;;18.54;69.82;98443.47;2087833;28;19925;-46
2023/05/18 00:41:54;;;;;;;41.50;22.50;;;;;;;18.57;69.55;98444.91;2084551;28;20494;-46
2023/05/18 00:42:55;;;;;;;43.47;22.48;;;;;;;18.59;69.62;98444.72;2086024;28;20480;-47
2023/05/18 00:43:57;;;;;;;;;;;;;;;18.50;69.89;98439.56;2088060;28;20044;-49
2023/05/18 00:44:57;;;;;;;41.20;22.40;;;;;;;18.55;69.90;98446.97;2087439;28;19927;-48
2023/05/18 00:45:59;;;;;;;;;;;;;;;18.48;69.81;98444.31;2079375;28;20052;-48
2023/05/18 00:47:00;;;;;;;45.65;21.83;;;;;;;18.51;69.54;98443.06;2085096;28;19929;-48
2023/05/18 00:48:02;;;;;;;42.60;22.75;;;;;;;18.53;69.81;98441.84;2086715;28;20041;-50
2023/05/18 00:49:03;;;;;;;43.15;21.10;;;;;;;18.59;70.05;98434.81;2087415;28;20483;-48
2023/05/18 00:50:05;;;;;;;;;;;;;;;18.52;69.73;98448.22;2087956;28;20044;-47
2023/05/18 00:51:06;;;;;;;39.70;22.05;;;;;;;18.55;69.89;98436.22;2078044;28;19928;-49
2023/05/18 00:52:07;;;;;;;;;;;;;;;18.47;70.63;98437.31;2083217;28;20110;-48
2023/05/18 00:53:09;;;;;;;;;;;;;;;18.41;70.18;98443.47;2083028;28;19928;-49
2023/05/18 00:54:11;;;;;;;43.50;21.65;;;;;;;18.49;69.83;98442.44;2087242;28;19925;-48
2023/05/18 00:55:13;;;;;;;39.03;21.25;;;;;;;18.54;69.78;98435.41;2086908;28;20245;-46
2023/05/18 00:56:15;;;;;;;43.80;22.38;;;;;;;18.58;69.81;98446.56;2083889;28;20057;-47
2023/05/18 00:57:18;;;;;;;51.20;22.63;;;;;;;18.59;69.26;98439.34;2084260;28;20053;-48
2023/05/18 00:58:20;;;;;;;40.20;21.67;;;;;;;18.60;69.76;98444.50;2086636;28;20106;-49
2023/05/18 00:59:20;;;;;;;42.85;23.02;;;;;;;18.62;69.80;98438.94;2087877;28;20135;-47
2023/05/18 01:00:22;;;;;;;;;;;;;;;18.50;69.90;98442.25;2083509;28;20056;-48
2023/05/18 01:01:27;;;;;;;41.60;22.30;;;;;;;18.53;69.96;98439.16;2084729;28;19956;-50
2023/05/18 01:02:29;;;;;;;38.35;20.83;;;;;;;18.57;69.74;98441.41;2085928;28;20064;-51
2023/05/18 01:03:29;;;;;;;40.15;21.45;;;;;;;18.59;69.44;98448.22;2088374;28;20097;-48
2023/05/18 01:04:32;;;;;;;;;;;;;;;18.50;69.85;98447.63;2088632;28;20576;-48
2023/05/18 01:05:33;;;;;;;41.97;20.58;;;;;;;18.54;69.54;98446.16;2086245;28;19925;-47
2023/05/18 01:06:35;;;;;;;;;;;;;;;18.48;69.84;98448.88;2078067;28;20048;-49
2023/05/18 01:07:36;;;;;;;;;;;;;;;18.43;70.28;98444.09;2082346;28;20386;-47
2023/05/18 01:08:40;;;;;;;36.60;20.13;;;;;;;18.51;69.42;98453.81;2089804;28;20026;-47
2023/05/18 01:09:41;;;;;;;45.75;20.98;;;;;;;18.53;69.39;98441.00;2086173;28;20486;-49
2023/05/18 01:10:43;;;;;;;;;;;;;;;18.44;70.20;98445.78;2087800;28;20040;-47
2023/05/18 01:11:55;;;;;;;41.05;22.10;;;;;;;18.50;69.99;98444.94;2086040;28;19920;-46
2023/05/18 01:13:02;;;;;;;47.25;23.52;;;;;;;18.54;69.53;98454.22;2085064;28;20138;-48
2023/05/18 01:14:12;;;;;;;41.42;21.05;;;;;;;18.55;69.02;98449.66;2086459;28;20075;-48
2023/05/18 01:15:17;;;;;;;42.70;21.48;;;;;;;18.57;69.68;98454.84;2087034;28;20048;-48
2023/05/18 01:16:25;;;;;;;35.45;19.42;;;;;;;18.59;69.05;98452.78;2085817;28;21351;-49
2023/05/18 01:17:38;;;;;;;37.60;20.38;;;;;;;18.58;69.66;98453.81;2087431;28;22109;-48
2023/05/18 01:18:46;;;;;;;40.58;19.58;;;;;;;18.57;69.80;98462.91;2082688;28;20480;-49
2023/05/18 01:20:11;;;;;;;36.80;19.70;;;;;;;18.55;69.62;98455.03;2081324;28;20126;-47
2023/05/18 01:21:24;;;;;;;33.47;19.48;;;;;;;18.56;69.71;98458.56;2078618;28;20152;-48
2023/05/18 01:22:37;;;;;;;39.03;21.40;;;;;;;18.54;69.47;98454.22;2079822;28;22107;-49
2023/05/18 01:23:52;;;;;;;45.08;20.60;;;;;;;18.57;69.61;98452.16;2077917;28;20090;-50
2023/05/18 01:25:01;;;;;;;38.72;19.00;;;;;;;18.56;69.44;98453.19;2082576;28;20133;-48
2023/05/18 01:26:14;;;;;;;33.55;20.90;;;;;;;18.57;69.83;98460.22;2080811;28;20044;-49
2023/05/18 01:27:18;;;;;;;36.88;20.20;;;;;;;18.59;69.09;98460.84;2083063;28;20059;-50
2023/05/18 01:28:25;;;;;;;40.13;20.67;;;;;;;18.59;69.25;98458.97;2080886;28;21475;-48
2023/05/18 01:29:29;;;;;;;41.25;20.10;;;;;;;18.59;69.30;98461.66;2081401;28;20056;-46
2023/05/18 01:30:29;;;;;;;38.20;22.42;;;;;;;18.60;69.49;98459.81;2084201;28;20705;-47
2023/05/18 01:31:31;;;;;;;;;;;;;;;18.52;69.96;98461.66;2087719;28;20057;-50
2023/05/18 01:32:39;;;;;;;33.53;18.88;;;;;;;18.53;69.51;98463.31;2087204;28;19954;-51
2023/05/18 01:33:40;;;;;;;35.67;19.90;;;;;;;18.55;69.77;98457.72;2087125;28;20048;-48
2023/05/18 01:34:41;;;;;;;44.35;19.67;;;;;;;18.58;69.57;98460.00;2084676;28;20053;-47
2023/05/18 01:35:46;;;;;;;;;;;;;;;18.49;69.72;98458.56;2082352;28;20638;-48
2023/05/18 01:36:47;;;;;;;31.70;18.25;;;;;;;18.52;70.07;98461.66;2082940;28;19932;-48
2023/05/18 01:37:48;;;;;;;;;;;;;;;18.43;69.95;98457.53;2088026;28;20052;-48
2023/05/18 01:38:50;;;;;;;41.13;19.42;;;;;;;18.48;69.75;98460.44;2087300;28;21068;-47
2023/05/18 01:39:51;;;;;;;35.30;20.35;;;;;;;18.53;69.96;98459.81;2088171;28;20123;-47
2023/05/18 01:41:04;;;;;;;40.50;20.63;;;;;;;18.57;69.58;98465.59;2085657;28;20117;-47
2023/05/18 01:42:13;;;;;;;35.60;19.95;;;;;;;18.57;69.76;98463.72;2085519;28;22573;-46
2023/05/18 01:43:17;;;;;;;34.05;19.27;;;;;;;18.59;69.62;98463.53;2086356;28;20517;-46
2023/05/18 01:44:23;;;;;;;34.15;20.13;;;;;;;18.60;69.75;98462.47;2085005;28;20105;-48
2023/05/18 01:45:28;;;;;;;34.90;18.67;;;;;;;18.60;69.31;98465.16;2083042;28;20040;-49
2023/05/18 01:46:36;;;;;;;35.72;19.73;;;;;;;18.58;69.68;98462.69;2085265;28;20129;-48
2023/05/18 01:47:39;;;;;;;32.30;18.45;;;;;;;18.58;69.60;98473.41;2085081;28;20053;-47
2023/05/18 01:48:48;;;;;;;34.55;18.80;;;;;;;18.60;69.58;98462.47;2081132;28;20075;-48
2023/05/18 01:49:55;;;;;;;33.88;18.67;;;;;;;18.58;69.45;98461.84;2082771;28;20506;-47
2023/05/18 01:50:59;;;;;;;34.58;18.77;;;;;;;18.59;69.22;98469.72;2080562;28;20048;-47
2023/05/18 01:52:05;;;;;;;35.70;19.83;;;;;;;18.59;69.04;98472.41;2087280;28;20097;-48
2023/05/18 01:53:12;;;;;;;35.15;18.83;;;;;;;18.59;69.33;98471.59;2082580;28;20147;-49
2023/05/18 01:54:17;;;;;;;33.83;20.65;;;;;;;18.59;69.43;98471.59;2081583;28;20048;-47
2023/05/18 01:55:20;;;;;;;31.92;17.67;;;;;;;18.60;69.45;98473.22;2081547;28;21777;-48
2023/05/18 01:56:22;;;;;;;36.65;19.38;;;;;;;18.61;69.50;98470.34;2087933;28;20056;-47
2023/05/18 01:57:30;;;;;;;38.90;18.83;;;;;;;18.62;69.53;98474.69;2086917;28;20133;-48
2023/05/18 01:58:30;;;;;;;37.00;19.27;;;;;;;18.61;69.59;98477.56;2087373;28;20052;-48
2023/05/18 01:59:32;;;;;;;;;;;;;;;18.51;69.41;98476.13;2085545;28;20052;-48
2023/05/18 02:00:33;;;;;;;;;;;;;;;18.42;69.97;98476.53;2087070;28;19937;-49
2023/05/18 02:01:34;;;;;;;37.28;18.80;;;;;;;18.48;69.90;98476.53;2084911;28;20359;-47
2023/05/18 02:02:35;;;;;;;35.08;17.45;;;;;;;18.54;69.65;98477.56;2083264;28;20053;-48
2023/05/18 02:03:37;;;;;;;;;;;;;;;18.47;70.21;98474.91;2079823;28;20494;-47
2023/05/18 02:04:37;;;;;;;38.28;18.10;;;;;;;18.50;69.87;98479.84;2086357;28;19967;-50
2023/05/18 02:05:39;;;;;;;39.47;20.10;;;;;;;18.55;69.82;98471.16;2087028;28;20052;-48
2023/05/18 02:06:40;;;;;;;37.10;19.42;;;;;;;18.58;69.66;98477.97;2085584;28;20503;-47
2023/05/18 02:07:42;;;;;;;;;;;;;;;18.49;69.88;98480.88;2084616;28;20049;-46
2023/05/18 02:08:43;;;;;;;33.35;18.65;;;;;;;18.52;69.89;98474.25;2087517;28;19928;-49
2023/05/18 02:09:45;;;;;;;;;;;;;;;18.46;69.92;98485.84;2085944;28;20079;-48
2023/05/18 02:10:45;;;;;;;34.88;18.40;;;;;;;18.51;69.88;98486.03;2084346;28;19928;-49
2023/05/18 02:11:47;;;;;;;;;;;;;;;18.44;70.03;98483.38;2087438;28;20040;-48
2023/05/18 02:12:51;;;;;;;34.50;18.05;;;;;;;18.48;69.69;98487.28;2087076;28;19977;-48
2023/05/18 02:13:53;;;;;;;34.30;18.35;;;;;;;18.51;69.75;98481.50;2084596;28;20105;-49
2023/05/18 02:14:54;;;;;;;33.45;17.80;;;;;;;18.55;68.90;98489.97;2084300;28;20453;-49
2023/05/18 02:15:55;;;;;;;;;;;;;;;18.46;69.69;98483.97;2086522;28;20044;-48
2023/05/18 02:16:56;;;;;;;;;;;;;;;18.39;70.09;98488.53;2087172;28;20333;-47
2023/05/18 02:17:58;;;;;;;29.20;16.27;;;;;;;18.44;69.98;98486.06;2083421;28;19920;-47
2023/05/18 02:18:59;;;;;;;34.35;19.02;;;;;;;18.50;69.58;98495.16;2078356;28;20621;-47
2023/05/18 02:20:01;;;;;;;34.55;17.60;;;;;;;18.54;70.26;98493.69;2081128;28;20041;-47
2023/05/18 02:21:02;;;;;;;36.10;17.48;;;;;;;18.57;69.55;98484.38;2083382;28;20053;-48
2023/05/18 02:22:05;;;;;;;32.05;17.58;;;;;;;18.57;69.00;98489.75;2087535;28;20052;-49
2023/05/18 02:23:06;;;;;;;29.63;17.63;;;;;;;18.54;68.85;98482.94;2087002;28;20044;-48
2023/05/18 02:24:10;;;;;;;;;;;;;;;18.46;69.82;98483.97;2087301;28;20504;-47
2023/05/18 02:25:11;;;;;;;36.78;19.45;;;;;;;18.49;69.71;98482.72;2085174;28;19928;-49
2023/05/18 02:26:12;;;;;;;;;;;;;;;18.42;69.89;98482.75;2087721;28;20048;-47
2023/05/18 02:27:14;;;;;;;26.10;16.00;;;;;;;18.48;69.43;98481.91;2085862;28;20660;-48
2023/05/18 02:28:17;;;;;;;37.58;17.15;;;;;;;18.51;69.97;98480.66;2080517;28;20148;-47
2023/05/18 02:29:17;;;;;;;30.60;17.63;;;;;;;18.54;69.73;98480.25;2077527;28;20057;-51
2023/05/18 02:30:19;;;;;;;;;;;;;;;18.47;69.84;98485.63;2085696;28;20061;-49
2023/05/18 02:31:20;;;;;;;30.85;16.70;;;;;;;18.50;70.15;98490.59;2083345;28;19924;-48
2023/05/18 02:32:22;;;;;;;30.27;16.60;;;;;;;18.54;69.33;98474.88;2084103;28;20056;-49
2023/05/18 02:33:25;;;;;;;32.40;17.70;;;;;;;18.54;69.56;98494.50;2085359;28;20049;-47
2023/05/18 02:34:30;;;;;;;36.95;16.23;;;;;;;18.53;69.55;98476.75;2086660;28;22410;-49
2023/05/18 02:35:31;;;;;;;34.40;16.65;;;;;;;18.57;69.24;98479.03;2085852;28;20040;-48
2023/05/18 02:36:35;;;;;;;;;;;;;;;18.44;69.88;98472.63;2083516;28;20056;-49
2023/05/18 02:37:38;;;;;;;26.95;16.42;;;;;;;18.47;69.97;98477.59;2087036;28;20011;-47
2023/05/18 02:38:41;;;;;;;30.45;15.77;;;;;;;18.52;69.82;98485.81;2087810;28;20053;-49
2023/05/18 02:39:41;;;;;;;30.42;16.15;;;;;;;18.54;68.96;98481.06;2081861;28;20694;-48
2023/05/18 02:40:43;;;;;;;;;;;;;;;18.46;69.72;98477.78;2088905;28;20049;-46
2023/05/18 02:41:44;;;;;;;27.95;15.95;;;;;;;18.47;69.30;98474.91;2086580;28;19932;-49
2023/05/18 02:42:46;;;;;;;27.38;16.02;;;;;;;18.48;70.01;98473.84;2079994;28;20060;-48
2023/05/18 02:43:48;;;;;;;30.25;16.70;;;;;;;18.50;70.41;98471.78;2079890;28;20052;-46
2023/05/18 02:44:50;;;;;;;32.85;16.40;;;;;;;18.53;69.96;98476.75;2081481;28;20049;-48
2023/05/18 02:45:51;;;;;;;29.70;17.08;;;;;;;18.54;69.89;98481.06;2084570;28;20052;-50
2023/05/18 02:46:52;;;;;;;;;;;;;;;18.46;69.99;98477.78;2081078;28;20045;-49
2023/05/18 02:47:53;;;;;;;28.00;15.88;;;;;;;18.48;69.96;98465.78;2080762;28;19928;-47
2023/05/18 02:48:54;;;;;;;;;;;;;;;18.40;70.11;98479.44;2082928;28;20154;-49
2023/05/18 02:49:55;;;;;;;34.65;16.45;;;;;;;18.45;69.81;98473.44;2082028;28;19963;-47
2023/05/18 02:50:57;;;;;;;;;;;;;;;18.41;69.99;98474.88;2083964;28;20728;-46
2023/05/18 02:51:58;;;;;;;26.13;15.68;;;;;;;18.46;70.22;98483.97;2082073;28;19924;-48
2023/05/18 02:52:59;;;;;;;;;;;;;;;18.42;69.88;98482.75;2083348;28;20049;-48
2023/05/18 02:54:00;;;;;;;31.83;15.57;;;;;;;18.46;70.00;98488.50;2083385;28;19965;-47
2023/05/18 02:55:01;;;;;;;;;;;;;;;18.39;69.88;98488.53;2085796;28;20053;-48
2023/05/18 02:56:02;;;;;;;31.58;16.95;;;;;;;18.46;69.60;98488.50;2085840;28;20676;-46
2023/05/18 02:57:04;;;;;;;30.05;16.13;;;;;;;18.50;69.67;98487.09;2084741;28;20052;-48
2023/05/18 02:58:05;;;;;;;24.25;14.00;;;;;;;18.53;69.58;98479.44;2087372;28;20056;-46
2023/05/18 02:59:08;;;;;;;;;;;;;;;18.43;69.90;98481.69;2086613;28;20183;-52
2023/05/18 03:00:10;;;;;;;25.48;14.10;;;;;;;18.49;70.03;98488.91;2087637;28;20012;-46
2023/05/18 03:01:12;;;;;;;30.27;16.92;;;;;;;18.51;69.94;98484.19;2082608;28;20464;-51
2023/05/18 03:02:13;;;;;;;31.02;15.90;;;;;;;18.53;69.44;98490.19;2076198;28;20522;-48
2023/05/18 03:03:15;;;;;;;27.98;17.63;;;;;;;18.54;69.94;98499.88;2079579;28;20131;-47
2023/05/18 03:04:15;;;;;;;26.48;15.57;;;;;;;18.56;69.61;98482.75;2086210;28;20048;-47
2023/05/18 03:05:22;;;;;;;;;;;;;;;18.46;69.87;98493.88;2087656;28;20068;-49
2023/05/18 03:06:25;;;;;;;28.10;15.05;;;;;;;18.48;69.71;98486.47;2086073;28;20003;-47
2023/05/18 03:07:27;;;;;;;40.10;15.43;;;;;;;18.49;69.87;98494.28;2085027;28;20422;-44
2023/05/18 03:08:27;;;;;;;24.35;14.68;;;;;;;18.51;69.07;98502.97;2084712;28;20617;-48
2023/05/18 03:09:29;;;;;;;;;;;;;;;18.43;70.00;98491.63;2088470;28;20056;-47
2023/05/18 03:10:30;;;;;;;26.75;14.65;;;;;;;18.45;69.84;98482.31;2087621;28;19959;-51
2023/05/18 03:11:31;;;;;;;;;;;;;;;18.40;70.18;98490.16;2087065;28;20053;-44
2023/05/18 03:12:32;;;;;;;28.85;15.57;;;;;;;18.45;69.77;98485.00;2089429;28;21549;-50
2023/05/18 03:13:33;;;;;;;27.20;14.88;;;;;;;18.48;70.04;98498.03;2087859;28;20109;-48
2023/05/18 03:14:36;;;;;;;34.72;15.48;;;;;;;18.50;69.72;98487.91;2086079;28;20052;-49
2023/05/18 03:15:38;;;;;;;29.58;15.82;;;;;;;18.52;70.26;98491.19;2089073;28;20083;-46
2023/05/18 03:16:39;;;;;;;25.48;14.50;;;;;;;18.54;69.55;98489.13;2082199;28;20037;-47
2023/05/18 03:17:41;;;;;;;;;;;;;;;18.45;69.56;98493.06;2079145;28;20075;-49
2023/05/18 03:18:41;;;;;;;23.55;14.38;;;;;;;18.48;69.87;98502.56;2082250;28;19928;-48
2023/05/18 03:19:43;;;;;;;;;;;;;;;18.41;70.10;98499.88;2079244;28;20144;-45
2023/05/18 03:20:44;;;;;;;25.65;14.88;;;;;;;18.46;70.04;98501.94;2078348;28;19932;-48
2023/05/18 03:21:48;;;;;;;;;;;;;;;18.41;70.07;98497.19;2087898;28;20074;-47
2023/05/18 03:22:48;;;;;;;29.63;16.05;;;;;;;18.41;69.83;98502.53;2087721;28;20418;-45
2023/05/18 03:23:50;;;;;;;;;;;;;;;18.39;70.05;98507.31;2087020;28;20102;-48
2023/05/18 03:24:54;;;;;;;25.23;15.45;;;;;;;18.44;69.55;98493.25;2086586;28;20389;-45
2023/05/18 03:25:55;;;;;;;26.75;14.35;;;;;;;18.48;69.72;98502.56;2087531;28;20075;-50
2023/05/18 03:26:56;;;;;;;32.35;14.75;;;;;;;18.50;69.71;98495.97;2083520;28;20106;-46
2023/05/18 03:27:58;;;;;;;;;;;;;;;18.42;69.94;98496.16;2085087;28;20122;-47
2023/05/18 03:29:00;;;;;;;24.35;13.70;;;;;;;18.44;69.75;98494.09;2078789;28;20417;-49
2023/05/18 03:30:03;;;;;;;25.42;14.32;;;;;;;18.49;69.41;98499.66;2082001;28;20045;-47
2023/05/18 03:31:03;;;;;;;25.17;14.00;;;;;;;18.49;69.26;98498.84;2083959;28;20041;-49
2023/05/18 03:32:05;;;;;;;;;;;;;;;18.41;69.56;98507.91;2087239;28;20106;-48
2023/05/18 03:33:06;;;;;;;29.35;14.45;;;;;;;18.46;69.54;98505.44;2082176;28;19974;-45
2023/05/18 03:34:07;;;;;;;;;;;;;;;18.38;69.85;98502.13;2085790;28;21557;-49
2023/05/18 03:35:09;;;;;;;27.98;15.27;;;;;;;18.43;69.94;98511.22;2080364;28;20785;-47
2023/05/18 03:36:11;;;;;;;29.08;14.02;;;;;;;18.47;69.64;98517.88;2084650;28;20071;-50
2023/05/18 03:37:12;;;;;;;25.27;15.48;;;;;;;18.50;69.54;98505.88;2080578;28;20427;-45
2023/05/18 03:38:14;;;;;;;;;;;;;;;18.42;69.89;98511.47;2084846;28;20048;-46
2023/05/18 03:39:14;;;;;;;27.50;14.30;;;;;;;18.42;69.75;98512.28;2085864;28;20276;-48
2023/05/18 03:40:16;;;;;;;;;;;;;;;18.37;70.03;98514.75;2089151;28;20115;-49
2023/05/18 03:41:17;;;;;;;24.55;13.25;;;;;;;18.40;69.88;98511.66;2084657;28;19924;-45
2023/05/18 03:42:18;;;;;;;;;;;;;;;18.37;69.98;98516.59;2088687;28;20082;-46
2023/05/18 03:43:19;;;;;;;22.80;12.35;;;;;;;18.40;69.98;98514.34;2083653;28;19928;-48
2023/05/18 03:44:22;;;;;;;;;;;;;;;18.36;69.80;98518.47;2082127;28;20057;-53
2023/05/18 03:45:24;;;;;;;24.33;13.20;;;;;;;18.41;69.73;98523.22;2083065;28;19932;-48
2023/05/18 03:46:26;;;;;;;26.42;14.82;;;;;;;18.46;69.68;98526.13;2079117;28;20057;-50
2023/05/18 03:47:26;;;;;;;29.60;14.48;;;;;;;18.47;69.51;98523.25;2084201;28;20049;-50
2023/05/18 03:48:28;;;;;;;;;;;;;;;18.40;69.45;98522.38;2085406;28;20250;-48
2023/05/18 03:49:29;;;;;;;27.95;12.38;;;;;;;18.43;69.51;98527.34;2085246;28;19924;-47
2023/05/18 03:50:31;;;;;;;24.27;12.38;;;;;;;18.46;69.68;98532.31;2080899;28;20102;-49
2023/05/18 03:51:32;;;;;;;35.35;14.68;;;;;;;18.48;69.78;98524.06;2081648;28;20121;-47
2023/05/18 03:52:34;;;;;;;;;;;;;;;18.39;69.84;98528.81;2079971;28;20110;-48
2023/05/18 03:53:35;;;;;;;25.30;13.80;;;;;;;18.43;69.86;98526.53;2086145;28;19959;-46
2023/05/18 03:54:36;;;;;;;;;;;;;;;18.37;69.89;98536.22;2086277;28;20041;-45
2023/05/18 03:55:37;;;;;;;24.58;13.68;;;;;;;18.40;69.58;98535.81;2087011;28;19929;-48
2023/05/18 03:56:38;;;;;;;;;;;;;;;18.36;69.78;98534.59;2086101;28;20531;-48
2023/05/18 03:57:39;;;;;;;22.38;12.18;;;;;;;18.40;69.57;98540.38;2085913;28;20006;-50
2023/05/18 03:58:41;;;;;;;;;;;;;;;18.35;70.08;98532.91;2081704;28;22048;-48
2023/05/18 03:59:41;;;;;;;;;;;;;;;18.32;70.28;98541.38;2087327;28;19982;-50
2023/05/18 04:00:44;;;;;;;24.27;13.30;;;;;;;18.37;69.95;98533.53;2084968;28;20496;-47
2023/05/18 04:01:45;;;;;;;20.77;12.90;;;;;;;18.42;69.37;98538.31;2080567;28;20679;-50
2023/05/18 04:02:50;;;;;;;;;;;;;;;18.37;70.34;98543.47;2087890;28;20115;-48
2023/05/18 04:03:55;;;;;;;27.92;15.15;;;;;;;18.41;69.69;98536.63;2085879;28;19959;-47
2023/05/18 04:04:56;;;;;;;25.27;12.90;;;;;;;18.43;69.66;98538.09;2082330;28;20044;-49
2023/05/18 04:05:57;;;;;;;21.50;10.90;;;;;;;18.47;69.61;98538.50;2083232;28;20048;-48
2023/05/18 04:07:01;;;;;;;;;;;;;;;18.39;69.76;98534.19;2082605;28;20048;-50
2023/05/18 04:08:01;;;;;;;23.35;12.50;;;;;;;18.42;69.92;98535.63;2079133;28;19924;-50
2023/05/18 04:09:03;;;;;;;;;;;;;;;18.41;70.32;98539.31;2081410;28;20055;-48
2023/05/18 04:10:04;;;;;;;;;;;;;;;18.37;70.48;98538.09;2083292;28;19920;-51
2023/05/18 04:11:06;;;;;;;19.80;12.30;;;;;;;18.42;70.23;98538.31;2080817;28;22043;-51
2023/05/18 04:12:07;;;;;;;21.95;12.05;;;;;;;18.46;70.14;98539.53;2083073;28;20052;-51
2023/05/18 04:13:09;;;;;;;28.15;13.85;;;;;;;18.51;70.09;98548.63;2086095;28;20181;-51
2023/05/18 04:14:10;;;;;;;23.55;13.10;;;;;;;18.53;69.21;98535.00;2083910;28;20055;-51
2023/05/18 04:15:13;;;;;;;24.08;12.80;;;;;;;18.51;69.82;98540.59;2087982;28;20132;-48
2023/05/18 04:16:15;;;;;;;23.42;12.85;;;;;;;18.53;69.12;98543.06;2085335;28;20131;-45
2023/05/18 04:17:20;;;;;;;24.73;13.15;;;;;;;18.50;69.91;98532.75;2076994;28;20048;-51
2023/05/18 04:18:21;;;;;;;19.58;10.88;;;;;;;18.52;69.70;98539.53;2074789;28;20722;-50
2023/05/18 04:19:22;;;;;;;;;;;;;;;18.45;70.10;98540.59;2080659;28;20166;-47
2023/05/18 04:20:27;;;;;;;21.77;11.57;;;;;;;18.48;70.02;98541.00;2076672;28;20530;-45
2023/05/18 04:21:34;;;;;;;25.15;10.65;;;;;;;18.51;70.18;98543.25;2068199;28;20061;-47
2023/05/18 04:22:42;;;;;;;19.70;10.63;;;;;;;18.51;69.82;98545.94;2079106;28;20774;-52
2023/05/18 04:23:43;;;;;;;21.73;12.20;;;;;;;18.51;69.58;98545.13;2080182;28;20049;-48
2023/05/18 04:24:46;;;;;;;24.23;12.82;;;;;;;18.51;69.83;98547.81;2078480;28;20915;-49
2023/05/18 04:25:48;;;;;;;18.88;11.27;;;;;;;18.51;69.54;98555.88;2080742;28;20057;-49
2023/05/18 04:26:48;;;;;;;21.50;12.13;;;;;;;18.53;69.08;98551.13;2073511;28;20060;-50
2023/05/18 04:27:50;;;;;;;;;;;;;;;18.43;69.47;98553.38;2082558;28;20067;-45
2023/05/18 04:28:51;;;;;;;16.27;12.13;;;;;;;18.44;69.29;98555.88;2077527;28;19928;-49
2023/05/18 04:29:52;;;;;;;;;;;;;;;18.37;69.57;98560.41;2085375;28;20056;-51
2023/05/18 04:30:53;;;;;;;;;;;;;;;18.33;69.62;98556.47;2075405;28;19928;-50
2023/05/18 04:31:59;;;;;;;21.57;11.53;;;;;;;18.39;69.53;98558.34;2076293;28;20374;-44
2023/05/18 04:33:00;;;;;;;20.10;11.63;;;;;;;18.39;69.38;98558.34;2079958;28;20128;-48
2023/05/18 04:34:01;;;;;;;;;;;;;;;18.36;69.81;98557.91;2083437;28;20056;-48
2023/05/18 04:35:03;;;;;;;22.95;12.05;;;;;;;18.39;69.41;98558.34;2079953;28;20005;-47
2023/05/18 04:36:05;;;;;;;20.00;10.75;;;;;;;18.43;69.76;98559.56;2077567;28;20061;-52
2023/05/18 04:37:06;;;;;;;20.30;11.13;;;;;;;18.51;69.07;98555.88;2080340;28;20677;-47
2023/05/18 04:38:07;;;;;;;;;;;;;;;18.47;69.38;98560.84;2086585;28;20055;-50
2023/05/18 04:39:08;;;;;;;37.45;12.18;;;;;;;18.55;69.64;98557.09;2081063;28;19998;-53
2023/05/18 04:40:12;;;;;;;;;;;;;;;18.50;69.77;98551.53;2087494;28;20052;-49
2023/05/18 04:41:13;;;;;;;20.80;12.05;;;;;;;18.51;69.87;98555.88;2079361;28;20016;-51
2023/05/18 04:42:26;;;;;;;;;;;;;;;18.46;69.55;98553.78;2079061;28;20049;-48
2023/05/18 04:43:27;;;;;;;28.00;11.45;;;;;;;18.47;69.08;98554.59;2073787;28;19933;-48
2023/05/18 04:44:32;;;;;;;;;;;;;;;18.39;69.05;98558.34;2084552;28;20048;-52
2023/05/18 04:45:34;;;;;;;22.55;11.70;;;;;;;18.43;68.97;98556.88;2081480;28;20279;-51
2023/05/18 04:46:38;;;;;;;25.15;10.70;;;;;;;18.46;69.27;98553.78;2072339;28;20071;-48
2023/05/18 04:47:40;;;;;;;27.52;12.13;;;;;;;18.49;69.42;98560.63;2073292;28;20055;-48
2023/05/18 04:48:42;;;;;;;26.92;12.27;;;;;;;18.48;68.85;98559.78;2079625;28;20430;-45
2023/05/18 04:49:43;;;;;;;20.60;9.95;;;;;;;18.49;68.46;98555.25;2081586;28;20053;-51
2023/05/18 04:50:45;;;;;;;;;;;;;;;18.40;69.27;98559.16;2084568;28;20056;-50
2023/05/18 04:51:46;;;;;;;17.35;9.93;;;;;;;18.42;68.48;98562.47;2082802;28;20527;-51
2023/05/18 04:52:48;;;;;;;;;;;;;;;18.36;68.82;98558.75;2074283;28;20045;-46
2023/05/18 04:53:49;;;;;;;18.48;10.10;;;;;;;18.40;68.95;98564.53;2078729;28;19924;-47
2023/05/18 04:54:51;;;;;;;;;;;;;;;18.35;69.39;98558.94;2084701;28;20048;-48
2023/05/18 04:55:52;;;;;;;23.65;12.00;;;;;;;18.40;68.85;98556.47;2077579;28;21159;-50
2023/05/18 04:56:53;;;;;;;22.05;10.40;;;;;;;18.43;68.81;98564.13;2079644;28;20750;-51